sensor_id;sensor_type;location;lat;lon;timestamp;P1;durP1;ratioP1;P2;durP2;ratioP2
20533;SDS011;12929;56.822;26.056;2023-11-21T00:00:45;12.95;;;5.90;;
20533;SDS011;12929;56.822;26.056;2023-11-21T00:03:13;16.67;;;6.55;;
20533;SDS011;12929;56.822;26.056;2023-11-21T00:05:42;13.07;;;6.03;;
20533;SDS011;12929;56.822;26.056;2023-11-21T00:08:10;14.63;;;5.90;;
20533;SDS011;12929;56.822;26.056;2023-11-21T00:10:38;11.63;;;4.57;;
20533;SDS011;12929;56.822;26.056;2023-11-21T00:13:06;12.73;;;5.28;;
20533;SDS011;12929;56.822;26.056;2023-11-21T00:15:34;10.30;;;3.75;;
20533;SDS011;12929;56.822;26.056;2023-11-21T00:18:02;15.02;;;5.32;;
20533;SDS011;12929;56.822;26.056;2023-11-21T00:20:29;14.50;;;4.72;;
20533;SDS011;12929;56.822;26.056;2023-11-21T00:22:57;10.98;;;3.95;;
20533;SDS011;12929;56.822;26.056;2023-11-21T00:25:26;10.40;;;4.85;;
20533;SDS011;12929;56.822;26.056;2023-11-21T00:27:54;13.70;;;5.10;;
20533;SDS011;12929;56.822;26.056;2023-11-21T00:30:21;13.38;;;6.10;;
20533;SDS011;12929;56.822;26.056;2023-11-21T00:32:49;11.10;;;4.22;;
20533;SDS011;12929;56.822;26.056;2023-11-21T00:35:17;9.48;;;4.35;;
20533;SDS011;12929;56.822;26.056;2023-11-21T00:37:51;11.20;;;4.45;;
20533;SDS011;12929;56.822;26.056;2023-11-21T00:40:19;10.93;;;4.72;;
20533;SDS011;12929;56.822;26.056;2023-11-21T00:42:48;8.63;;;4.47;;
20533;SDS011;12929;56.822;26.056;2023-11-21T00:45:16;10.50;;;4.63;;
20533;SDS011;12929;56.822;26.056;2023-11-21T00:47:43;7.63;;;3.35;;
20533;SDS011;12929;56.822;26.056;2023-11-21T00:50:11;8.80;;;4.32;;
20533;SDS011;12929;56.822;26.056;2023-11-21T00:52:39;14.23;;;4.75;;
20533;SDS011;12929;56.822;26.056;2023-11-21T00:55:07;8.40;;;4.65;;
20533;SDS011;12929;56.822;26.056;2023-11-21T00:57:35;11.65;;;4.10;;
20533;SDS011;12929;56.822;26.056;2023-11-21T01:00:04;16.48;;;5.78;;
20533;SDS011;12929;56.822;26.056;2023-11-21T01:02:44;11.13;;;4.43;;
20533;SDS011;12929;56.822;26.056;2023-11-21T01:05:12;10.45;;;4.85;;
20533;SDS011;12929;56.822;26.056;2023-11-21T01:07:40;11.18;;;4.65;;
20533;SDS011;12929;56.822;26.056;2023-11-21T01:10:07;11.40;;;5.20;;
20533;SDS011;12929;56.822;26.056;2023-11-21T01:12:37;13.27;;;4.88;;
20533;SDS011;12929;56.822;26.056;2023-11-21T01:15:05;11.52;;;4.55;;
20533;SDS011;12929;56.822;26.056;2023-11-21T01:17:39;8.68;;;4.28;;
20533;SDS011;12929;56.822;26.056;2023-11-21T01:20:08;10.63;;;4.70;;
20533;SDS011;12929;56.822;26.056;2023-11-21T01:22:40;10.35;;;4.53;;
20533;SDS011;12929;56.822;26.056;2023-11-21T01:25:08;9.88;;;4.85;;
20533;SDS011;12929;56.822;26.056;2023-11-21T01:27:37;11.88;;;4.47;;
20533;SDS011;12929;56.822;26.056;2023-11-21T01:30:05;12.80;;;4.75;;
20533;SDS011;12929;56.822;26.056;2023-11-21T01:32:35;12.38;;;4.97;;
20533;SDS011;12929;56.822;26.056;2023-11-21T01:35:03;13.00;;;4.57;;
20533;SDS011;12929;56.822;26.056;2023-11-21T01:37:33;11.10;;;4.57;;
20533;SDS011;12929;56.822;26.056;2023-11-21T01:40:00;10.98;;;4.18;;
20533;SDS011;12929;56.822;26.056;2023-11-21T01:42:29;12.93;;;4.57;;
20533;SDS011;12929;56.822;26.056;2023-11-21T01:44:57;9.73;;;4.13;;
20533;SDS011;12929;56.822;26.056;2023-11-21T01:47:25;14.65;;;5.05;;
20533;SDS011;12929;56.822;26.056;2023-11-21T01:49:53;11.35;;;4.35;;
20533;SDS011;12929;56.822;26.056;2023-11-21T01:52:21;8.38;;;4.30;;
20533;SDS011;12929;56.822;26.056;2023-11-21T01:54:49;10.15;;;4.07;;
20533;SDS011;12929;56.822;26.056;2023-11-21T01:57:16;8.52;;;3.65;;
20533;SDS011;12929;56.822;26.056;2023-11-21T01:59:46;14.43;;;4.85;;
20533;SDS011;12929;56.822;26.056;2023-11-21T02:02:15;10.63;;;3.60;;
20533;SDS011;12929;56.822;26.056;2023-11-21T02:04:44;7.65;;;3.50;;
20533;SDS011;12929;56.822;26.056;2023-11-21T02:07:12;8.48;;;3.40;;
20533;SDS011;12929;56.822;26.056;2023-11-21T02:09:40;10.77;;;3.50;;
20533;SDS011;12929;56.822;26.056;2023-11-21T02:12:09;8.43;;;2.90;;
20533;SDS011;12929;56.822;26.056;2023-11-21T02:14:38;10.07;;;4.65;;
20533;SDS011;12929;56.822;26.056;2023-11-21T02:17:06;8.93;;;3.50;;
20533;SDS011;12929;56.822;26.056;2023-11-21T02:19:34;8.30;;;3.17;;
20533;SDS011;12929;56.822;26.056;2023-11-21T02:22:02;10.35;;;3.95;;
20533;SDS011;12929;56.822;26.056;2023-11-21T02:24:33;8.30;;;2.90;;
20533;SDS011;12929;56.822;26.056;2023-11-21T02:27:00;8.57;;;3.42;;
20533;SDS011;12929;56.822;26.056;2023-11-21T02:29:28;12.65;;;3.42;;
20533;SDS011;12929;56.822;26.056;2023-11-21T02:31:56;11.52;;;3.65;;
20533;SDS011;12929;56.822;26.056;2023-11-21T02:34:24;10.75;;;3.50;;
20533;SDS011;12929;56.822;26.056;2023-11-21T02:36:52;9.55;;;3.55;;
20533;SDS011;12929;56.822;26.056;2023-11-21T02:39:21;10.98;;;4.28;;
20533;SDS011;12929;56.822;26.056;2023-11-21T02:41:51;9.93;;;3.63;;
20533;SDS011;12929;56.822;26.056;2023-11-21T02:44:19;9.15;;;4.53;;
20533;SDS011;12929;56.822;26.056;2023-11-21T02:46:47;12.50;;;4.85;;
20533;SDS011;12929;56.822;26.056;2023-11-21T02:49:14;15.50;;;5.03;;
20533;SDS011;12929;56.822;26.056;2023-11-21T02:51:42;10.15;;;4.90;;
20533;SDS011;12929;56.822;26.056;2023-11-21T02:54:10;10.82;;;4.57;;
20533;SDS011;12929;56.822;26.056;2023-11-21T02:56:38;8.38;;;2.88;;
20533;SDS011;12929;56.822;26.056;2023-11-21T02:59:06;8.10;;;3.28;;
20533;SDS011;12929;56.822;26.056;2023-11-21T03:01:34;9.02;;;3.28;;
20533;SDS011;12929;56.822;26.056;2023-11-21T03:04:02;9.13;;;3.58;;
20533;SDS011;12929;56.822;26.056;2023-11-21T03:06:30;9.27;;;3.72;;
20533;SDS011;12929;56.822;26.056;2023-11-21T03:08:57;10.70;;;3.97;;
20533;SDS011;12929;56.822;26.056;2023-11-21T03:11:25;11.13;;;4.53;;
20533;SDS011;12929;56.822;26.056;2023-11-21T03:13:53;12.35;;;3.95;;
20533;SDS011;12929;56.822;26.056;2023-11-21T03:16:20;10.50;;;4.60;;
20533;SDS011;12929;56.822;26.056;2023-11-21T03:18:48;7.25;;;3.58;;
20533;SDS011;12929;56.822;26.056;2023-11-21T03:21:16;10.52;;;4.00;;
20533;SDS011;12929;56.822;26.056;2023-11-21T03:23:43;10.25;;;3.42;;
20533;SDS011;12929;56.822;26.056;2023-11-21T03:26:12;11.25;;;3.88;;
20533;SDS011;12929;56.822;26.056;2023-11-21T03:28:40;11.48;;;4.45;;
20533;SDS011;12929;56.822;26.056;2023-11-21T03:31:07;8.73;;;3.60;;
20533;SDS011;12929;56.822;26.056;2023-11-21T03:33:38;7.78;;;2.75;;
20533;SDS011;12929;56.822;26.056;2023-11-21T03:36:05;8.85;;;3.70;;
20533;SDS011;12929;56.822;26.056;2023-11-21T03:38:34;11.18;;;5.00;;
20533;SDS011;12929;56.822;26.056;2023-11-21T03:41:02;11.02;;;3.88;;
20533;SDS011;12929;56.822;26.056;2023-11-21T03:43:31;10.52;;;4.35;;
20533;SDS011;12929;56.822;26.056;2023-11-21T03:45:59;11.70;;;3.83;;
20533;SDS011;12929;56.822;26.056;2023-11-21T03:48:26;11.07;;;4.85;;
20533;SDS011;12929;56.822;26.056;2023-11-21T03:50:54;10.73;;;4.38;;
20533;SDS011;12929;56.822;26.056;2023-11-21T03:53:22;13.57;;;4.50;;
20533;SDS011;12929;56.822;26.056;2023-11-21T03:55:49;10.52;;;4.55;;
20533;SDS011;12929;56.822;26.056;2023-11-21T03:58:17;13.88;;;4.97;;
20533;SDS011;12929;56.822;26.056;2023-11-21T04:00:46;15.23;;;6.13;;
20533;SDS011;12929;56.822;26.056;2023-11-21T04:03:15;15.57;;;6.13;;
20533;SDS011;12929;56.822;26.056;2023-11-21T04:05:43;15.15;;;6.55;;
20533;SDS011;12929;56.822;26.056;2023-11-21T04:08:12;15.32;;;6.07;;
20533;SDS011;12929;56.822;26.056;2023-11-21T04:10:40;13.32;;;5.22;;
20533;SDS011;12929;56.822;26.056;2023-11-21T04:13:09;14.77;;;6.47;;
20533;SDS011;12929;56.822;26.056;2023-11-21T04:15:37;18.08;;;6.15;;
20533;SDS011;12929;56.822;26.056;2023-11-21T04:18:04;15.48;;;6.22;;
20533;SDS011;12929;56.822;26.056;2023-11-21T04:20:32;14.52;;;6.13;;
20533;SDS011;12929;56.822;26.056;2023-11-21T04:23:00;15.23;;;7.40;;
20533;SDS011;12929;56.822;26.056;2023-11-21T04:25:27;14.85;;;6.90;;
20533;SDS011;12929;56.822;26.056;2023-11-21T04:27:55;17.88;;;7.72;;
20533;SDS011;12929;56.822;26.056;2023-11-21T04:30:23;16.58;;;7.50;;
20533;SDS011;12929;56.822;26.056;2023-11-21T04:32:50;14.43;;;6.40;;
20533;SDS011;12929;56.822;26.056;2023-11-21T04:35:18;17.85;;;7.07;;
20533;SDS011;12929;56.822;26.056;2023-11-21T04:37:46;16.40;;;6.82;;
20533;SDS011;12929;56.822;26.056;2023-11-21T04:40:14;16.45;;;6.38;;
20533;SDS011;12929;56.822;26.056;2023-11-21T04:42:42;15.10;;;5.68;;
20533;SDS011;12929;56.822;26.056;2023-11-21T04:45:10;16.15;;;6.32;;
20533;SDS011;12929;56.822;26.056;2023-11-21T04:47:39;15.32;;;6.78;;
20533;SDS011;12929;56.822;26.056;2023-11-21T04:50:07;11.95;;;5.65;;
20533;SDS011;12929;56.822;26.056;2023-11-21T04:52:35;18.02;;;6.43;;
20533;SDS011;12929;56.822;26.056;2023-11-21T04:55:03;15.82;;;7.15;;
20533;SDS011;12929;56.822;26.056;2023-11-21T04:57:30;16.65;;;6.22;;
20533;SDS011;12929;56.822;26.056;2023-11-21T04:59:58;13.57;;;6.43;;
20533;SDS011;12929;56.822;26.056;2023-11-21T05:02:26;17.23;;;6.30;;
20533;SDS011;12929;56.822;26.056;2023-11-21T05:05:01;16.90;;;6.53;;
20533;SDS011;12929;56.822;26.056;2023-11-21T05:07:33;17.70;;;6.95;;
20533;SDS011;12929;56.822;26.056;2023-11-21T05:10:03;14.75;;;6.80;;
20533;SDS011;12929;56.822;26.056;2023-11-21T05:12:35;12.73;;;5.70;;
20533;SDS011;12929;56.822;26.056;2023-11-21T05:15:04;19.60;;;6.88;;
20533;SDS011;12929;56.822;26.056;2023-11-21T05:17:41;16.23;;;6.60;;
20533;SDS011;12929;56.822;26.056;2023-11-21T05:20:11;13.95;;;5.95;;
20533;SDS011;12929;56.822;26.056;2023-11-21T05:22:40;15.13;;;5.75;;
20533;SDS011;12929;56.822;26.056;2023-11-21T05:25:09;15.27;;;5.97;;
20533;SDS011;12929;56.822;26.056;2023-11-21T05:27:38;14.38;;;6.68;;
20533;SDS011;12929;56.822;26.056;2023-11-21T05:30:06;13.25;;;5.90;;
20533;SDS011;12929;56.822;26.056;2023-11-21T05:32:39;13.88;;;6.07;;
20533;SDS011;12929;56.822;26.056;2023-11-21T05:35:07;15.43;;;6.13;;
20533;SDS011;12929;56.822;26.056;2023-11-21T05:37:38;14.63;;;5.63;;
20533;SDS011;12929;56.822;26.056;2023-11-21T05:40:07;14.00;;;5.47;;
20533;SDS011;12929;56.822;26.056;2023-11-21T05:42:35;18.65;;;6.45;;
20533;SDS011;12929;56.822;26.056;2023-11-21T05:45:04;16.70;;;6.90;;
20533;SDS011;12929;56.822;26.056;2023-11-21T05:47:40;13.43;;;5.68;;
20533;SDS011;12929;56.822;26.056;2023-11-21T05:50:09;15.25;;;6.32;;
20533;SDS011;12929;56.822;26.056;2023-11-21T05:52:39;18.25;;;7.03;;
20533;SDS011;12929;56.822;26.056;2023-11-21T05:55:08;13.68;;;5.65;;
20533;SDS011;12929;56.822;26.056;2023-11-21T05:57:39;14.23;;;5.88;;
20533;SDS011;12929;56.822;26.056;2023-11-21T06:00:09;16.83;;;5.85;;
20533;SDS011;12929;56.822;26.056;2023-11-21T06:02:52;11.57;;;5.20;;
20533;SDS011;12929;56.822;26.056;2023-11-21T06:05:22;12.27;;;5.25;;
20533;SDS011;12929;56.822;26.056;2023-11-21T06:07:52;11.27;;;5.25;;
20533;SDS011;12929;56.822;26.056;2023-11-21T06:10:21;12.45;;;4.82;;
20533;SDS011;12929;56.822;26.056;2023-11-21T06:12:52;14.82;;;5.43;;
20533;SDS011;12929;56.822;26.056;2023-11-21T06:15:20;29.23;;;6.10;;
20533;SDS011;12929;56.822;26.056;2023-11-21T06:17:50;13.00;;;5.47;;
20533;SDS011;12929;56.822;26.056;2023-11-21T06:20:21;25.42;;;8.25;;
20533;SDS011;12929;56.822;26.056;2023-11-21T06:22:50;58.40;;;11.00;;
20533;SDS011;12929;56.822;26.056;2023-11-21T06:25:18;14.35;;;5.53;;
20533;SDS011;12929;56.822;26.056;2023-11-21T06:27:46;13.70;;;5.43;;
20533;SDS011;12929;56.822;26.056;2023-11-21T06:30:15;15.38;;;6.43;;
20533;SDS011;12929;56.822;26.056;2023-11-21T06:32:43;15.95;;;5.95;;
20533;SDS011;12929;56.822;26.056;2023-11-21T06:35:14;15.65;;;6.05;;
20533;SDS011;12929;56.822;26.056;2023-11-21T06:37:43;14.35;;;6.13;;
20533;SDS011;12929;56.822;26.056;2023-11-21T06:40:16;18.20;;;5.72;;
20533;SDS011;12929;56.822;26.056;2023-11-21T06:42:48;15.13;;;5.85;;
20533;SDS011;12929;56.822;26.056;2023-11-21T06:45:17;14.55;;;5.30;;
20533;SDS011;12929;56.822;26.056;2023-11-21T06:47:45;17.35;;;5.68;;
20533;SDS011;12929;56.822;26.056;2023-11-21T06:50:13;14.95;;;6.47;;
20533;SDS011;12929;56.822;26.056;2023-11-21T06:52:41;16.83;;;6.32;;
20533;SDS011;12929;56.822;26.056;2023-11-21T06:55:08;17.20;;;6.63;;
20533;SDS011;12929;56.822;26.056;2023-11-21T06:57:36;16.90;;;6.55;;
20533;SDS011;12929;56.822;26.056;2023-11-21T07:00:05;15.45;;;5.90;;
20533;SDS011;12929;56.822;26.056;2023-11-21T07:02:36;15.77;;;6.63;;
20533;SDS011;12929;56.822;26.056;2023-11-21T07:05:05;13.77;;;5.57;;
20533;SDS011;12929;56.822;26.056;2023-11-21T07:07:33;15.75;;;6.30;;
20533;SDS011;12929;56.822;26.056;2023-11-21T07:10:03;12.25;;;5.18;;
20533;SDS011;12929;56.822;26.056;2023-11-21T07:12:32;12.98;;;5.32;;
20533;SDS011;12929;56.822;26.056;2023-11-21T07:15:01;13.88;;;5.28;;
20533;SDS011;12929;56.822;26.056;2023-11-21T07:17:29;10.52;;;5.03;;
20533;SDS011;12929;56.822;26.056;2023-11-21T07:19:58;10.52;;;4.97;;
20533;SDS011;12929;56.822;26.056;2023-11-21T07:22:26;12.73;;;6.15;;
20533;SDS011;12929;56.822;26.056;2023-11-21T07:24:53;11.40;;;5.05;;
20533;SDS011;12929;56.822;26.056;2023-11-21T07:27:23;15.02;;;5.68;;
20533;SDS011;12929;56.822;26.056;2023-11-21T07:29:51;10.70;;;4.50;;
20533;SDS011;12929;56.822;26.056;2023-11-21T07:32:18;11.65;;;4.63;;
20533;SDS011;12929;56.822;26.056;2023-11-21T07:34:46;12.07;;;5.10;;
20533;SDS011;12929;56.822;26.056;2023-11-21T07:37:14;15.52;;;4.97;;
20533;SDS011;12929;56.822;26.056;2023-11-21T07:39:42;11.45;;;5.32;;
20533;SDS011;12929;56.822;26.056;2023-11-21T07:42:09;13.45;;;4.93;;
20533;SDS011;12929;56.822;26.056;2023-11-21T07:44:37;12.38;;;4.93;;
20533;SDS011;12929;56.822;26.056;2023-11-21T07:47:05;15.20;;;5.05;;
20533;SDS011;12929;56.822;26.056;2023-11-21T07:49:33;15.75;;;5.50;;
20533;SDS011;12929;56.822;26.056;2023-11-21T07:52:01;11.85;;;5.13;;
20533;SDS011;12929;56.822;26.056;2023-11-21T07:54:28;11.30;;;5.30;;
20533;SDS011;12929;56.822;26.056;2023-11-21T07:56:57;17.63;;;5.22;;
20533;SDS011;12929;56.822;26.056;2023-11-21T07:59:24;11.18;;;5.47;;
20533;SDS011;12929;56.822;26.056;2023-11-21T08:01:52;10.90;;;4.90;;
20533;SDS011;12929;56.822;26.056;2023-11-21T08:04:22;12.18;;;4.28;;
20533;SDS011;12929;56.822;26.056;2023-11-21T08:06:50;12.20;;;5.63;;
20533;SDS011;12929;56.822;26.056;2023-11-21T08:09:18;15.30;;;5.53;;
20533;SDS011;12929;56.822;26.056;2023-11-21T08:11:45;12.77;;;4.38;;
20533;SDS011;12929;56.822;26.056;2023-11-21T08:14:13;14.57;;;5.72;;
20533;SDS011;12929;56.822;26.056;2023-11-21T08:16:42;14.63;;;5.55;;
20533;SDS011;12929;56.822;26.056;2023-11-21T08:19:09;13.57;;;6.13;;
20533;SDS011;12929;56.822;26.056;2023-11-21T08:21:38;13.35;;;5.53;;
20533;SDS011;12929;56.822;26.056;2023-11-21T08:24:07;14.40;;;4.97;;
20533;SDS011;12929;56.822;26.056;2023-11-21T08:26:37;13.95;;;6.15;;
20533;SDS011;12929;56.822;26.056;2023-11-21T08:29:05;14.93;;;6.20;;
20533;SDS011;12929;56.822;26.056;2023-11-21T08:31:34;16.20;;;5.35;;
20533;SDS011;12929;56.822;26.056;2023-11-21T08:34:02;16.20;;;4.93;;
20533;SDS011;12929;56.822;26.056;2023-11-21T08:36:30;13.07;;;5.10;;
20533;SDS011;12929;56.822;26.056;2023-11-21T08:38:58;11.02;;;5.50;;
20533;SDS011;12929;56.822;26.056;2023-11-21T08:41:26;14.68;;;5.45;;
20533;SDS011;12929;56.822;26.056;2023-11-21T08:43:54;10.68;;;4.32;;
20533;SDS011;12929;56.822;26.056;2023-11-21T08:46:23;9.25;;;4.68;;
20533;SDS011;12929;56.822;26.056;2023-11-21T08:48:53;10.35;;;4.85;;
20533;SDS011;12929;56.822;26.056;2023-11-21T08:51:20;13.77;;;5.25;;
20533;SDS011;12929;56.822;26.056;2023-11-21T08:53:48;13.50;;;4.72;;
20533;SDS011;12929;56.822;26.056;2023-11-21T08:56:15;12.18;;;5.03;;
20533;SDS011;12929;56.822;26.056;2023-11-21T08:58:45;9.18;;;4.32;;
20533;SDS011;12929;56.822;26.056;2023-11-21T09:01:17;19.80;;;5.85;;
20533;SDS011;12929;56.822;26.056;2023-11-21T09:03:45;13.35;;;4.93;;
20533;SDS011;12929;56.822;26.056;2023-11-21T09:06:12;10.80;;;5.47;;
20533;SDS011;12929;56.822;26.056;2023-11-21T09:08:41;10.50;;;4.82;;
20533;SDS011;12929;56.822;26.056;2023-11-21T09:11:09;15.35;;;6.07;;
20533;SDS011;12929;56.822;26.056;2023-11-21T09:13:36;13.85;;;6.00;;
20533;SDS011;12929;56.822;26.056;2023-11-21T09:16:04;13.25;;;5.57;;
20533;SDS011;12929;56.822;26.056;2023-11-21T09:18:32;12.73;;;5.75;;
20533;SDS011;12929;56.822;26.056;2023-11-21T09:21:00;14.43;;;4.60;;
20533;SDS011;12929;56.822;26.056;2023-11-21T09:23:28;15.05;;;5.72;;
20533;SDS011;12929;56.822;26.056;2023-11-21T09:25:55;11.07;;;5.20;;
20533;SDS011;12929;56.822;26.056;2023-11-21T09:28:24;13.90;;;5.03;;
20533;SDS011;12929;56.822;26.056;2023-11-21T09:30:54;11.55;;;5.05;;
20533;SDS011;12929;56.822;26.056;2023-11-21T09:33:22;14.77;;;5.80;;
20533;SDS011;12929;56.822;26.056;2023-11-21T09:35:51;15.35;;;7.03;;
20533;SDS011;12929;56.822;26.056;2023-11-21T09:38:19;14.95;;;5.88;;
20533;SDS011;12929;56.822;26.056;2023-11-21T09:40:47;15.07;;;6.43;;
20533;SDS011;12929;56.822;26.056;2023-11-21T09:43:17;15.27;;;6.03;;
20533;SDS011;12929;56.822;26.056;2023-11-21T09:45:56;17.80;;;6.22;;
20533;SDS011;12929;56.822;26.056;2023-11-21T09:48:29;16.45;;;4.97;;
20533;SDS011;12929;56.822;26.056;2023-11-21T09:50:59;17.77;;;6.57;;
20533;SDS011;12929;56.822;26.056;2023-11-21T09:53:28;12.48;;;5.18;;
20533;SDS011;12929;56.822;26.056;2023-11-21T09:55:58;15.85;;;6.88;;
20533;SDS011;12929;56.822;26.056;2023-11-21T09:58:29;15.80;;;7.00;;
20533;SDS011;12929;56.822;26.056;2023-11-21T10:00:58;14.60;;;6.75;;
20533;SDS011;12929;56.822;26.056;2023-11-21T10:03:30;16.73;;;6.18;;
20533;SDS011;12929;56.822;26.056;2023-11-21T10:05:58;17.10;;;6.13;;
20533;SDS011;12929;56.822;26.056;2023-11-21T10:08:27;18.90;;;7.30;;
20533;SDS011;12929;56.822;26.056;2023-11-21T10:11:15;16.95;;;7.95;;
20533;SDS011;12929;56.822;26.056;2023-11-21T10:13:46;18.75;;;6.97;;
20533;SDS011;12929;56.822;26.056;2023-11-21T10:16:15;16.65;;;7.35;;
20533;SDS011;12929;56.822;26.056;2023-11-21T10:18:51;18.15;;;7.40;;
20533;SDS011;12929;56.822;26.056;2023-11-21T10:21:38;13.63;;;5.32;;
20533;SDS011;12929;56.822;26.056;2023-11-21T10:24:06;15.95;;;5.82;;
20533;SDS011;12929;56.822;26.056;2023-11-21T10:26:37;12.35;;;6.68;;
20533;SDS011;12929;56.822;26.056;2023-11-21T10:29:18;11.55;;;6.25;;
20533;SDS011;12929;56.822;26.056;2023-11-21T10:31:51;15.25;;;5.18;;
20533;SDS011;12929;56.822;26.056;2023-11-21T10:34:26;19.83;;;4.75;;
20533;SDS011;12929;56.822;26.056;2023-11-21T10:36:58;17.08;;;6.00;;
20533;SDS011;12929;56.822;26.056;2023-11-21T10:39:39;13.82;;;4.00;;
20533;SDS011;12929;56.822;26.056;2023-11-21T10:42:08;13.07;;;4.45;;
20533;SDS011;12929;56.822;26.056;2023-11-21T10:44:41;19.85;;;4.97;;
20533;SDS011;12929;56.822;26.056;2023-11-21T10:47:14;12.80;;;5.10;;
20533;SDS011;12929;56.822;26.056;2023-11-21T10:49:44;12.45;;;5.13;;
20533;SDS011;12929;56.822;26.056;2023-11-21T10:52:18;13.93;;;5.05;;
20533;SDS011;12929;56.822;26.056;2023-11-21T10:54:50;13.82;;;4.95;;
20533;SDS011;12929;56.822;26.056;2023-11-21T10:57:18;13.63;;;5.38;;
20533;SDS011;12929;56.822;26.056;2023-11-21T10:59:48;15.07;;;5.70;;
20533;SDS011;12929;56.822;26.056;2023-11-21T11:02:24;14.32;;;4.53;;
20533;SDS011;12929;56.822;26.056;2023-11-21T11:05:01;17.45;;;5.00;;
20533;SDS011;12929;56.822;26.056;2023-11-21T11:07:30;17.00;;;5.05;;
20533;SDS011;12929;56.822;26.056;2023-11-21T11:10:03;11.40;;;4.20;;
20533;SDS011;12929;56.822;26.056;2023-11-21T11:12:33;11.80;;;4.57;;
20533;SDS011;12929;56.822;26.056;2023-11-21T11:15:04;11.98;;;3.80;;
20533;SDS011;12929;56.822;26.056;2023-11-21T11:17:33;11.52;;;4.28;;
20533;SDS011;12929;56.822;26.056;2023-11-21T11:20:03;21.20;;;4.70;;
20533;SDS011;12929;56.822;26.056;2023-11-21T11:28:20;14.85;;;4.15;;
20533;SDS011;12929;56.822;26.056;2023-11-21T11:36:36;11.88;;;4.32;;
20533;SDS011;12929;56.822;26.056;2023-11-21T11:39:29;13.32;;;5.50;;
20533;SDS011;12929;56.822;26.056;2023-11-21T11:42:03;10.35;;;4.70;;
20533;SDS011;12929;56.822;26.056;2023-11-21T11:47:21;14.23;;;4.22;;
20533;SDS011;12929;56.822;26.056;2023-11-21T11:52:42;14.23;;;4.28;;
20533;SDS011;12929;56.822;26.056;2023-11-21T11:55:12;9.15;;;3.83;;
20533;SDS011;12929;56.822;26.056;2023-11-21T11:57:41;12.23;;;3.90;;
20533;SDS011;12929;56.822;26.056;2023-11-21T12:03:08;11.77;;;4.72;;
20533;SDS011;12929;56.822;26.056;2023-11-21T12:05:36;10.52;;;4.32;;
20533;SDS011;12929;56.822;26.056;2023-11-21T12:08:08;12.95;;;4.65;;
20533;SDS011;12929;56.822;26.056;2023-11-21T12:10:37;10.07;;;3.72;;
20533;SDS011;12929;56.822;26.056;2023-11-21T12:13:07;13.43;;;3.72;;
20533;SDS011;12929;56.822;26.056;2023-11-21T12:15:40;9.43;;;3.28;;
20533;SDS011;12929;56.822;26.056;2023-11-21T12:18:09;8.38;;;3.83;;
20533;SDS011;12929;56.822;26.056;2023-11-21T12:20:36;12.85;;;3.65;;
20533;SDS011;12929;56.822;26.056;2023-11-21T12:23:08;10.35;;;4.43;;
20533;SDS011;12929;56.822;26.056;2023-11-21T12:25:41;6.90;;;3.50;;
20533;SDS011;12929;56.822;26.056;2023-11-21T12:28:10;9.23;;;3.75;;
20533;SDS011;12929;56.822;26.056;2023-11-21T12:30:39;7.13;;;3.00;;
20533;SDS011;12929;56.822;26.056;2023-11-21T12:33:06;7.20;;;3.13;;
20533;SDS011;12929;56.822;26.056;2023-11-21T12:35:36;8.70;;;4.13;;
20533;SDS011;12929;56.822;26.056;2023-11-21T12:38:05;8.80;;;3.65;;
20533;SDS011;12929;56.822;26.056;2023-11-21T12:40:33;7.80;;;3.53;;
20533;SDS011;12929;56.822;26.056;2023-11-21T12:43:01;8.25;;;3.45;;
20533;SDS011;12929;56.822;26.056;2023-11-21T12:45:31;8.75;;;3.75;;
20533;SDS011;12929;56.822;26.056;2023-11-21T12:48:00;9.68;;;3.28;;
20533;SDS011;12929;56.822;26.056;2023-11-21T12:50:35;10.40;;;3.80;;
20533;SDS011;12929;56.822;26.056;2023-11-21T12:53:05;8.57;;;3.92;;
20533;SDS011;12929;56.822;26.056;2023-11-21T12:55:39;8.55;;;3.80;;
20533;SDS011;12929;56.822;26.056;2023-11-21T12:58:09;14.50;;;4.18;;
20533;SDS011;12929;56.822;26.056;2023-11-21T13:00:45;7.57;;;3.40;;
20533;SDS011;12929;56.822;26.056;2023-11-21T13:03:14;13.50;;;4.70;;
20533;SDS011;12929;56.822;26.056;2023-11-21T13:05:46;12.45;;;4.30;;
20533;SDS011;12929;56.822;26.056;2023-11-21T13:08:21;10.27;;;3.50;;
20533;SDS011;12929;56.822;26.056;2023-11-21T13:10:52;9.63;;;3.67;;
20533;SDS011;12929;56.822;26.056;2023-11-21T13:13:23;10.60;;;4.13;;
20533;SDS011;12929;56.822;26.056;2023-11-21T13:18:24;8.52;;;4.03;;
20533;SDS011;12929;56.822;26.056;2023-11-21T13:20:58;9.20;;;3.72;;
20533;SDS011;12929;56.822;26.056;2023-11-21T13:23:26;9.63;;;4.20;;
20533;SDS011;12929;56.822;26.056;2023-11-21T13:25:56;10.75;;;4.50;;
20533;SDS011;12929;56.822;26.056;2023-11-21T13:28:32;7.68;;;3.55;;
20533;SDS011;12929;56.822;26.056;2023-11-21T13:31:02;10.18;;;3.70;;
20533;SDS011;12929;56.822;26.056;2023-11-21T13:33:52;14.85;;;4.80;;
20533;SDS011;12929;56.822;26.056;2023-11-21T13:36:26;16.50;;;4.68;;
20533;SDS011;12929;56.822;26.056;2023-11-21T13:38:57;9.45;;;3.92;;
20533;SDS011;12929;56.822;26.056;2023-11-21T13:41:25;13.07;;;4.97;;
20533;SDS011;12929;56.822;26.056;2023-11-21T13:43:58;11.52;;;3.72;;
20533;SDS011;12929;56.822;26.056;2023-11-21T13:46:39;10.80;;;3.78;;
20533;SDS011;12929;56.822;26.056;2023-11-21T13:49:08;8.43;;;3.17;;
20533;SDS011;12929;56.822;26.056;2023-11-21T13:51:38;9.82;;;3.45;;
20533;SDS011;12929;56.822;26.056;2023-11-21T13:54:12;9.43;;;3.50;;
20533;SDS011;12929;56.822;26.056;2023-11-21T13:56:41;14.35;;;4.60;;
20533;SDS011;12929;56.822;26.056;2023-11-21T13:59:12;13.20;;;3.88;;
20533;SDS011;12929;56.822;26.056;2023-11-21T14:01:50;8.18;;;3.47;;
20533;SDS011;12929;56.822;26.056;2023-11-21T14:04:39;9.65;;;3.47;;
20533;SDS011;12929;56.822;26.056;2023-11-21T14:07:23;9.43;;;3.53;;
20533;SDS011;12929;56.822;26.056;2023-11-21T14:10:03;10.45;;;4.25;;
20533;SDS011;12929;56.822;26.056;2023-11-21T14:12:40;9.32;;;3.53;;
20533;SDS011;12929;56.822;26.056;2023-11-21T14:15:09;7.60;;;3.83;;
20533;SDS011;12929;56.822;26.056;2023-11-21T14:17:39;9.25;;;3.67;;
20533;SDS011;12929;56.822;26.056;2023-11-21T14:20:08;10.13;;;3.92;;
20533;SDS011;12929;56.822;26.056;2023-11-21T14:22:43;10.35;;;3.78;;
20533;SDS011;12929;56.822;26.056;2023-11-21T14:25:11;11.77;;;4.50;;
20533;SDS011;12929;56.822;26.056;2023-11-21T14:27:41;14.00;;;3.83;;
20533;SDS011;12929;56.822;26.056;2023-11-21T14:30:09;10.48;;;3.78;;
20533;SDS011;12929;56.822;26.056;2023-11-21T14:32:39;8.75;;;3.50;;
20533;SDS011;12929;56.822;26.056;2023-11-21T14:35:07;10.52;;;3.88;;
20533;SDS011;12929;56.822;26.056;2023-11-21T14:37:36;14.70;;;4.13;;
20533;SDS011;12929;56.822;26.056;2023-11-21T14:40:03;8.75;;;3.38;;
20533;SDS011;12929;56.822;26.056;2023-11-21T14:42:34;8.98;;;4.15;;
20533;SDS011;12929;56.822;26.056;2023-11-21T14:45:04;12.20;;;4.38;;
20533;SDS011;12929;56.822;26.056;2023-11-21T14:47:33;9.30;;;3.78;;
20533;SDS011;12929;56.822;26.056;2023-11-21T14:50:01;20.15;;;5.05;;
20533;SDS011;12929;56.822;26.056;2023-11-21T14:52:49;11.60;;;4.28;;
20533;SDS011;12929;56.822;26.056;2023-11-21T14:55:26;12.13;;;4.32;;
20533;SDS011;12929;56.822;26.056;2023-11-21T14:58:14;14.18;;;4.80;;
20533;SDS011;12929;56.822;26.056;2023-11-21T15:00:46;13.18;;;4.75;;